Terminal Aerodrome Forecast
Issued by NWS Twin Cities, MN

Home | Current Version | Previous Version | Graphics & Text | Print | Product List | Glossary On
Versions: 1 2 3 4 5 6 7 8 9 10 11 12 13 14 15 16 17 18 19
000
FTUS43 KMPX 221540 AAD
TAFSTC
TAF AMD
KSTC 221540Z 2216/2312 21006KT 6SM BR SCT006
     FM221700 23006KT 6SM BR SCT006
      TEMPO 2217/2220 4SM BR BKN006
     FM222100 20012KT P6SM SCT150 BKN200
     FM230500 21013KT P6SM OVC070=

USA.gov is the U.S. government's official web portal to all federal, state and local government web resources and services.